createdAt,value
2018-09-04T00:00:59.262Z,101178.84
2018-09-04T00:03:29.286Z,101178.02
2018-09-04T00:06:00.503Z,101173.88
2018-09-04T00:08:29.719Z,101166.00
2018-09-04T00:10:59.171Z,101164.88
2018-09-04T00:13:28.886Z,101160.20
2018-09-04T00:15:58.231Z,101160.44
2018-09-04T00:18:27.994Z,101157.70
2018-09-04T00:20:57.000Z,101152.73
2018-09-04T00:23:26.461Z,101150.25
2018-09-04T00:25:55.930Z,101152.94
2018-09-04T00:28:25.713Z,101148.27
2018-09-04T00:30:55.042Z,101146.32
2018-09-04T00:33:24.835Z,101143.60
2018-09-04T00:35:54.459Z,101146.82
2018-09-04T00:38:23.525Z,101145.39
2018-09-04T00:40:52.735Z,101146.98
2018-09-04T00:43:23.069Z,101148.84
2018-09-04T00:45:52.805Z,101144.18
2018-09-04T00:48:22.187Z,101140.87
2018-09-04T00:50:52.172Z,101149.77
2018-09-04T00:53:21.506Z,101146.97
2018-09-04T00:55:50.536Z,101160.23
2018-09-04T00:58:20.178Z,101153.95
2018-09-04T01:00:49.202Z,101156.06
2018-09-04T01:03:19.311Z,101161.66
2018-09-04T01:05:49.218Z,101162.19
2018-09-04T01:08:18.105Z,101157.55
2018-09-04T01:10:48.547Z,101158.81
2018-09-04T01:13:17.708Z,101154.94
2018-09-04T01:15:46.602Z,101155.40
2018-09-04T01:18:16.330Z,101157.28
2018-09-04T01:20:45.209Z,101151.86
2018-09-04T01:23:14.772Z,101152.69
2018-09-04T01:25:44.094Z,101152.09
2018-09-04T01:28:13.860Z,101151.38
2018-09-04T01:30:42.959Z,101157.59
2018-09-04T01:33:12.153Z,101156.47
2018-09-04T01:35:41.329Z,101155.87
2018-09-04T01:38:10.115Z,101161.23
2018-09-04T01:40:39.735Z,101160.41
2018-09-04T01:43:09.351Z,101164.44
2018-09-04T01:45:38.613Z,101163.61
2018-09-04T01:48:08.084Z,101160.59
2018-09-04T01:50:38.626Z,101162.41
2018-09-04T01:53:07.662Z,101160.48
2018-09-04T01:55:39.257Z,101163.13
2018-09-04T01:58:08.321Z,101165.84
2018-09-04T02:00:38.095Z,101167.95
2018-09-04T02:03:08.241Z,101162.19
2018-09-04T02:05:37.135Z,101163.77
2018-09-04T02:08:06.179Z,101159.89
2018-09-04T02:10:37.021Z,101159.82
2018-09-04T02:13:06.068Z,101157.86
2018-09-04T02:15:35.046Z,101162.98
2018-09-04T02:18:04.639Z,101160.50
2018-09-04T02:20:35.157Z,101164.75
2018-09-04T02:23:05.185Z,101161.97
2018-09-04T02:25:34.291Z,101157.86
2018-09-04T02:28:03.839Z,101159.97
2018-09-04T02:30:33.785Z,101158.31
2018-09-04T02:33:03.596Z,101152.30
2018-09-04T02:35:33.865Z,101158.20
2018-09-04T02:38:04.274Z,101155.19
2018-09-04T02:40:33.782Z,101150.81
2018-09-04T02:43:04.133Z,101157.30
2018-09-04T02:45:34.161Z,101152.92
2018-09-04T02:48:04.551Z,101155.06
2018-09-04T02:50:33.826Z,101151.76
2018-09-04T02:53:03.365Z,101155.19
2018-09-04T02:55:32.589Z,101157.90
2018-09-04T02:58:01.830Z,101154.89
2018-09-04T03:00:31.663Z,101149.95
2018-09-04T03:03:00.934Z,101147.77
2018-09-04T03:05:31.362Z,101153.94
2018-09-04T03:08:01.586Z,101154.46
2018-09-04T03:10:31.242Z,101155.22
2018-09-04T03:13:00.824Z,101157.92
2018-09-04T03:15:31.355Z,101154.64
2018-09-04T03:18:00.403Z,101160.63
2018-09-04T03:20:30.401Z,101157.35
2018-09-04T03:23:00.428Z,101160.52
2018-09-04T03:25:29.852Z,101157.50
2018-09-04T03:27:58.932Z,101158.86
2018-09-04T03:30:28.534Z,101165.63
2018-09-04T03:32:58.270Z,101162.58
2018-09-04T03:35:27.927Z,101163.93
2018-09-04T03:37:57.711Z,101156.02
2018-09-04T03:40:26.914Z,101156.85
2018-09-04T03:42:56.478Z,101155.20
2018-09-04T03:45:25.762Z,101167.30
2018-09-04T03:47:55.589Z,101160.80
2018-09-04T03:50:25.182Z,101166.43
2018-09-04T03:52:54.098Z,101161.46
2018-09-04T03:55:23.683Z,101162.21
2018-09-04T03:57:52.887Z,101160.81
2018-09-04T04:00:21.931Z,101161.34
2018-09-04T04:02:50.907Z,101159.08
2018-09-04T04:05:21.028Z,101161.73
2018-09-04T04:07:50.581Z,101158.20
2018-09-04T04:10:19.933Z,101165.41
2018-09-04T04:12:49.030Z,101167.38
2018-09-04T04:15:19.501Z,101172.41
2018-09-04T04:17:48.839Z,101171.05
2018-09-04T04:20:18.910Z,101173.10
2018-09-04T04:22:48.560Z,101173.55
2018-09-04T04:25:18.335Z,101170.02
2018-09-04T04:27:47.763Z,101170.84
2018-09-04T04:30:16.686Z,101170.02
2018-09-04T04:32:46.923Z,101173.77
2018-09-04T04:35:16.250Z,101175.91
2018-09-04T04:37:46.078Z,101172.67
2018-09-04T04:40:15.060Z,101176.95
2018-09-04T04:42:44.189Z,101182.89
2018-09-04T04:45:13.216Z,101183.94
2018-09-04T04:47:47.898Z,101187.70
2018-09-04T04:50:18.127Z,101188.75
2018-09-04T04:52:47.559Z,101188.17
2018-09-04T04:55:17.824Z,101184.41
2018-09-04T04:57:46.725Z,101191.62
2018-09-04T05:00:17.216Z,101186.13
2018-09-04T05:02:47.152Z,101190.49
2018-09-04T05:05:17.082Z,101195.38
2018-09-04T05:07:47.037Z,101197.17
2018-09-04T05:10:16.652Z,101194.77
2018-09-04T05:12:46.748Z,101199.36
2018-09-04T05:15:17.085Z,101201.54
2018-09-04T05:17:47.079Z,101198.48
2018-09-04T05:20:23.108Z,101206.52
2018-09-04T05:22:52.149Z,101206.60
2018-09-04T05:25:21.538Z,101204.33
2018-09-04T05:27:51.457Z,101205.30
2018-09-04T05:30:20.432Z,101210.88
2018-09-04T05:33:01.325Z,101203.72
2018-09-04T05:35:34.567Z,101211.31
2018-09-04T05:38:04.522Z,101205.91
2018-09-04T05:40:33.543Z,101213.14
2018-09-04T05:43:04.701Z,101205.24
2018-09-04T05:45:35.107Z,101211.02
2018-09-04T05:48:07.782Z,101212.23
2018-09-04T05:50:38.674Z,101213.20
2018-09-04T05:53:07.876Z,101217.92
2018-09-04T05:55:37.465Z,101212.23
2018-09-04T05:58:07.759Z,101206.65
2018-09-04T06:00:41.992Z,101203.50
2018-09-04T06:03:11.655Z,101207.61
2018-09-04T06:05:42.026Z,101204.81
2018-09-04T06:08:11.592Z,101199.48
2018-09-04T06:10:41.315Z,101200.83
2018-09-04T06:13:10.569Z,101201.23
2018-09-04T06:15:40.942Z,101196.95
2018-09-04T06:18:10.536Z,101206.34
2018-09-04T06:20:39.573Z,101204.99
2018-09-04T06:23:09.148Z,101204.38
2018-09-04T06:25:38.719Z,101198.83
2018-09-04T06:28:08.059Z,101204.08
2018-09-04T06:30:37.658Z,101204.08
2018-09-04T06:33:07.051Z,101203.63
2018-09-04T06:35:36.551Z,101203.33
2018-09-04T06:38:05.856Z,101209.70
2018-09-04T06:40:35.723Z,101209.27
2018-09-04T06:43:05.409Z,101214.77
2018-09-04T06:45:34.988Z,101218.20
2018-09-04T06:48:04.583Z,101224.80
2018-09-04T06:50:34.668Z,101217.80
2018-09-04T06:53:04.285Z,101213.66
2018-09-04T06:55:33.343Z,101210.44
2018-09-04T06:58:03.879Z,101218.12
2018-09-04T07:00:33.465Z,101217.80
2018-09-04T07:03:05.348Z,101218.80
2018-09-04T07:05:34.743Z,101214.24
2018-09-04T07:08:03.806Z,101216.75
2018-09-04T07:10:33.014Z,101215.20
2018-09-04T07:13:02.483Z,101223.84
2018-09-04T07:15:32.555Z,101222.48
2018-09-04T07:18:02.335Z,101226.75
2018-09-04T07:20:32.326Z,101217.56
2018-09-04T07:23:02.199Z,101216.92
2018-09-04T07:25:31.863Z,101217.75
2018-09-04T07:28:01.339Z,101214.11
2018-09-04T07:30:30.446Z,101216.33
2018-09-04T07:33:00.450Z,101217.30
2018-09-04T07:35:30.621Z,101220.14
2018-09-04T07:38:00.623Z,101220.31
2018-09-04T07:40:30.188Z,101220.44
2018-09-04T07:42:59.589Z,101221.67
2018-09-04T07:45:34.685Z,101224.02
2018-09-04T07:48:06.125Z,101221.00
2018-09-04T07:50:36.406Z,101214.50
2018-09-04T07:53:06.488Z,101215.86
2018-09-04T07:55:36.236Z,101213.73
2018-09-04T07:58:06.244Z,101220.44
2018-09-04T08:00:36.462Z,101217.13
2018-09-04T08:03:06.803Z,101217.00
2018-09-04T08:05:36.982Z,101215.24
2018-09-04T08:08:05.915Z,101210.22
2018-09-04T08:10:35.847Z,101215.39
2018-09-04T08:13:07.671Z,101214.44
2018-09-04T08:15:37.572Z,101216.67
2018-09-04T08:18:06.953Z,101216.81
2018-09-04T08:20:36.491Z,101216.06
2018-09-04T08:23:08.556Z,101218.11
2018-09-04T08:25:39.202Z,101217.38
2018-09-04T08:28:09.887Z,101210.95
2018-09-04T08:30:39.702Z,101207.25
2018-09-04T08:33:09.788Z,101207.14
2018-09-04T08:35:39.533Z,101211.17
2018-09-04T08:38:09.456Z,101209.29
2018-09-04T08:40:40.402Z,101207.86
2018-09-04T08:43:09.668Z,101208.81
2018-09-04T08:45:41.305Z,101199.84
2018-09-04T08:48:16.479Z,101195.91
2018-09-04T08:50:46.178Z,101195.42
2018-09-04T08:53:17.836Z,101186.67
2018-09-04T08:55:47.985Z,101184.36
2018-09-04T08:58:18.977Z,101194.02
2018-09-04T09:00:49.433Z,101190.63
2018-09-04T09:03:19.198Z,101191.55
2018-09-04T09:05:49.005Z,101195.77
2018-09-04T09:08:22.176Z,101190.50
2018-09-04T09:10:51.066Z,101187.61
2018-09-04T09:13:20.335Z,101182.98
2018-09-04T09:15:49.357Z,101181.23
2018-09-04T09:18:18.871Z,101179.36
2018-09-04T09:20:47.651Z,101177.45
2018-09-04T09:23:16.395Z,101175.18
2018-09-04T09:25:45.222Z,101172.63
2018-09-04T09:28:16.462Z,101170.47
2018-09-04T09:30:47.746Z,101171.63
2018-09-04T09:33:17.083Z,101158.99
2018-09-04T09:35:46.428Z,101166.96
2018-09-04T09:38:15.782Z,101162.59
2018-09-04T09:40:50.246Z,101163.96
2018-09-04T09:43:20.079Z,101160.66
2018-09-04T09:45:49.900Z,101158.48
2018-09-04T09:48:21.454Z,101152.20
2018-09-04T09:50:52.737Z,101157.13
2018-09-04T09:53:22.692Z,101156.02
2018-09-04T09:55:51.347Z,101163.97
2018-09-04T09:58:20.111Z,101158.38
2018-09-04T10:00:53.224Z,101159.98
2018-09-04T10:03:27.871Z,101154.02
2018-09-04T10:05:56.996Z,101153.59
2018-09-04T10:08:26.423Z,101151.91
2018-09-04T10:10:55.142Z,101146.03
2018-09-04T10:13:23.929Z,101145.11
2018-09-04T10:15:52.901Z,101153.83
2018-09-04T10:18:22.530Z,101147.38
2018-09-04T10:20:52.449Z,101152.87
2018-09-04T10:23:21.974Z,101148.51
2018-09-04T10:25:51.686Z,101151.59
2018-09-04T10:28:21.599Z,101151.63
2018-09-04T10:30:50.913Z,101146.34
2018-09-04T10:33:19.988Z,101150.49
2018-09-04T10:35:50.220Z,101148.52
2018-09-04T10:38:24.456Z,101148.09
2018-09-04T10:40:55.023Z,101149.63
2018-09-04T10:43:29.085Z,101149.55
2018-09-04T10:46:05.236Z,101140.61
2018-09-04T10:48:35.411Z,101147.78
2018-09-04T10:51:05.157Z,101145.87
2018-09-04T10:53:35.357Z,101143.16
2018-09-04T10:56:04.703Z,101143.13
2018-09-04T10:58:35.277Z,101131.90
2018-09-04T11:01:04.660Z,101135.45
2018-09-04T11:03:33.981Z,101134.81
2018-09-04T11:06:03.448Z,101130.06
2018-09-04T11:08:32.436Z,101128.69
2018-09-04T11:11:03.328Z,101120.23
2018-09-04T11:13:32.750Z,101113.33
2018-09-04T11:16:02.117Z,101125.45
2018-09-04T11:18:30.966Z,101119.55
2018-09-04T11:20:59.992Z,101119.71
2018-09-04T11:23:29.082Z,101113.30
2018-09-04T11:25:58.742Z,101114.42
2018-09-04T11:28:28.298Z,101113.05
2018-09-04T11:30:57.176Z,101113.62
2018-09-04T11:33:27.327Z,101113.89
2018-09-04T11:35:57.144Z,101118.80
2018-09-04T11:38:26.188Z,101109.44
2018-09-04T11:40:55.918Z,101110.63
2018-09-04T11:43:25.133Z,101117.71
2018-09-04T11:45:54.120Z,101115.72
2018-09-04T11:48:23.385Z,101113.11
2018-09-04T11:50:53.054Z,101112.11
2018-09-04T11:53:22.509Z,101111.07
2018-09-04T11:55:51.576Z,101112.55
2018-09-04T11:58:20.858Z,101112.08
2018-09-04T12:00:50.365Z,101114.55
2018-09-04T12:03:19.460Z,101109.05
2018-09-04T12:05:48.224Z,101116.88
2018-09-04T12:08:17.277Z,101111.63
2018-09-04T12:10:46.836Z,101107.44
2018-09-04T12:13:20.271Z,101106.30
2018-09-04T12:15:49.371Z,101098.22
2018-09-04T12:18:19.145Z,101101.98
2018-09-04T12:20:52.596Z,101099.71
2018-09-04T12:23:21.867Z,101098.79
2018-09-04T12:25:57.925Z,101102.43
2018-09-04T12:28:27.735Z,101103.29
2018-09-04T12:30:57.946Z,101102.27
2018-09-04T12:33:27.976Z,101091.45
2018-09-04T12:35:57.251Z,101085.84
2018-09-04T12:38:30.800Z,101089.61
2018-09-04T12:41:04.490Z,101092.77
2018-09-04T12:43:33.755Z,101086.78
2018-09-04T12:46:03.157Z,101086.66
2018-09-04T12:48:32.773Z,101088.51
2018-09-04T12:51:02.750Z,101092.89
2018-09-04T12:53:32.674Z,101082.65
2018-09-04T12:56:02.015Z,101090.49
2018-09-04T12:58:31.494Z,101089.03
2018-09-04T13:01:01.049Z,101107.23
2018-09-04T13:03:30.351Z,101092.34
2018-09-04T13:05:59.244Z,101097.20
2018-09-04T13:08:30.788Z,101101.05
2018-09-04T13:11:00.300Z,101095.19
2018-09-04T13:13:29.504Z,101097.14
2018-09-04T13:15:59.935Z,101093.55
2018-09-04T13:18:30.551Z,101097.13
2018-09-04T13:21:02.340Z,101100.66
2018-09-04T13:23:33.022Z,101095.28
2018-09-04T13:26:02.735Z,101097.06
2018-09-04T13:28:32.935Z,101110.30
2018-09-04T13:31:01.872Z,101106.53
2018-09-04T13:33:31.100Z,101102.13
2018-09-04T13:36:00.447Z,101098.52
2018-09-04T13:38:30.102Z,101099.00
2018-09-04T13:41:04.314Z,101099.60
2018-09-04T13:43:33.715Z,101097.66
2018-09-04T13:46:03.429Z,101088.98
2018-09-04T13:48:34.506Z,101095.08
2018-09-04T13:51:04.855Z,101100.32
2018-09-04T13:53:34.221Z,101092.16
2018-09-04T13:56:03.797Z,101092.75
2018-09-04T13:58:34.199Z,101096.30
2018-09-04T14:01:03.113Z,101102.34
2018-09-04T14:03:32.173Z,101105.31
2018-09-04T14:06:01.254Z,101106.08
2018-09-04T14:08:33.095Z,101109.94
2018-09-04T14:11:02.230Z,101104.78
2018-09-04T14:13:33.122Z,101112.17
2018-09-04T14:16:06.555Z,101104.52
2018-09-04T14:18:36.739Z,101106.45
2018-09-04T14:21:06.790Z,101092.48
2018-09-04T14:23:36.435Z,101096.30
2018-09-04T14:26:05.560Z,101099.60
2018-09-04T14:29:08.417Z,101100.35
2018-09-04T14:31:30.486Z,101104.26
2018-09-04T14:33:59.502Z,101105.85
2018-09-04T14:36:28.786Z,101105.85
2018-09-04T14:38:59.200Z,101106.40
2018-09-04T14:41:28.646Z,101114.40
2018-09-04T14:43:58.109Z,101104.23
2018-09-04T14:46:27.243Z,101103.72
2018-09-04T14:48:56.589Z,101102.41
2018-09-04T14:51:27.240Z,101101.54
2018-09-04T14:53:57.772Z,101099.67
2018-09-04T14:56:27.774Z,101096.94
2018-09-04T14:58:57.702Z,101093.34
2018-09-04T15:01:27.023Z,101096.03
2018-09-04T15:03:55.831Z,101094.05
2018-09-04T15:06:26.954Z,101104.87
2018-09-04T15:08:59.421Z,101100.04
2018-09-04T15:11:29.942Z,101093.91
2018-09-04T15:14:08.719Z,101097.41
2018-09-04T15:16:41.508Z,101100.14
2018-09-04T15:19:11.384Z,101102.13
2018-09-04T15:21:40.378Z,101105.78
2018-09-04T15:24:16.114Z,101108.88
2018-09-04T15:26:48.553Z,101103.72
2018-09-04T15:29:20.349Z,101106.94
2018-09-04T15:31:50.830Z,101102.27
2018-09-04T15:34:21.201Z,101110.28
2018-09-04T15:36:52.459Z,101110.63
2018-09-04T15:39:21.957Z,101110.48
2018-09-04T15:41:56.824Z,101114.12
2018-09-04T15:44:27.856Z,101113.33
2018-09-04T15:46:58.414Z,101108.67
2018-09-04T15:49:33.292Z,101114.16
2018-09-04T15:52:04.361Z,101115.22
2018-09-04T15:54:34.748Z,101119.28
2018-09-04T15:57:05.373Z,101118.20
2018-09-04T15:59:34.987Z,101120.93
2018-09-04T16:02:04.499Z,101119.81
2018-09-04T16:04:40.555Z,101118.89
2018-09-04T16:07:10.907Z,101113.94
2018-09-04T16:09:42.310Z,101115.30
2018-09-04T16:12:14.860Z,101120.49
2018-09-04T16:14:43.861Z,101120.71
2018-09-04T16:17:14.103Z,101118.00
2018-09-04T16:19:47.125Z,101115.23
2018-09-04T16:22:19.820Z,101120.12
2018-09-04T16:24:51.829Z,101118.11
2018-09-04T16:27:25.787Z,101123.25
2018-09-04T16:29:55.180Z,101123.41
2018-09-04T16:32:34.912Z,101127.81
2018-09-04T16:35:08.590Z,101122.63
2018-09-04T16:37:40.682Z,101126.14
2018-09-04T16:40:12.698Z,101128.02
2018-09-04T16:42:46.288Z,101129.87
2018-09-04T16:45:17.362Z,101125.28
2018-09-04T16:47:46.833Z,101132.56
2018-09-04T16:50:15.887Z,101139.02
2018-09-04T16:52:45.408Z,101132.70
2018-09-04T16:55:15.255Z,101138.45
2018-09-04T16:57:44.929Z,101138.09
2018-09-04T17:00:15.788Z,101139.68
2018-09-04T17:02:46.323Z,101145.06
2018-09-04T17:05:15.446Z,101146.33
2018-09-04T17:07:44.522Z,101135.42
2018-09-04T17:10:13.659Z,101138.97
2018-09-04T17:12:42.560Z,101142.77
2018-09-04T17:15:11.312Z,101142.23
2018-09-04T17:17:40.031Z,101149.27
2018-09-04T17:20:09.503Z,101149.52
2018-09-04T17:22:38.305Z,101146.72
2018-09-04T17:25:07.445Z,101148.94
2018-09-04T17:27:36.255Z,101152.66
2018-09-04T17:30:05.370Z,101150.14
2018-09-04T17:32:35.497Z,101156.62
2018-09-04T17:35:05.212Z,101155.26
2018-09-04T17:37:34.974Z,101162.36
2018-09-04T17:40:05.649Z,101155.21
2018-09-04T17:42:34.947Z,101158.93
2018-09-04T17:45:04.549Z,101161.61
2018-09-04T17:47:33.765Z,101162.39
2018-09-04T17:50:03.769Z,101165.60
2018-09-04T17:52:33.431Z,101163.94
2018-09-04T17:55:02.586Z,101166.92
2018-09-04T17:57:32.817Z,101165.02
2018-09-04T18:00:02.706Z,101169.34
2018-09-04T18:02:31.677Z,101169.22
2018-09-04T18:05:02.215Z,101171.88
2018-09-04T18:07:31.461Z,101175.34
2018-09-04T18:10:01.589Z,101179.19
2018-09-04T18:12:31.482Z,101178.59
2018-09-04T18:15:00.658Z,101181.91
2018-09-04T18:17:30.075Z,101181.76
2018-09-04T18:20:00.182Z,101186.77
2018-09-04T18:22:29.453Z,101191.69
2018-09-04T18:24:59.292Z,101189.19
2018-09-04T18:27:29.286Z,101194.30
2018-09-04T18:29:58.892Z,101190.45
2018-09-04T18:32:28.385Z,101192.19
2018-09-04T18:34:58.068Z,101203.06
2018-09-04T18:37:30.745Z,101208.41
2018-09-04T18:40:00.959Z,101210.58
2018-09-04T18:42:35.565Z,101209.81
2018-09-04T18:45:06.299Z,101225.25
2018-09-04T18:47:37.899Z,101222.31
2018-09-04T18:50:07.379Z,101230.64
2018-09-04T18:52:36.959Z,101227.61
2018-09-04T18:55:08.451Z,101231.39
2018-09-04T18:57:38.487Z,101229.33
2018-09-04T19:00:08.438Z,101241.34
2018-09-04T19:02:38.489Z,101241.45
2018-09-04T19:05:07.830Z,101244.02
2018-09-04T19:07:37.357Z,101246.49
2018-09-04T19:10:08.061Z,101245.31
2018-09-04T19:12:37.063Z,101246.60
2018-09-04T19:15:08.303Z,101250.30
2018-09-04T19:17:38.609Z,101259.74
2018-09-04T19:20:08.507Z,101256.73
2018-09-04T19:22:37.555Z,101261.95
2018-09-04T19:25:08.428Z,101264.30
2018-09-04T19:27:37.760Z,101263.33
2018-09-04T19:30:08.375Z,101270.90
2018-09-04T19:32:38.148Z,101268.86
2018-09-04T19:35:08.281Z,101275.36
2018-09-04T19:37:38.662Z,101278.64
2018-09-04T19:40:08.781Z,101277.81
2018-09-04T19:42:39.640Z,101283.73
2018-09-04T19:45:09.714Z,101285.26
2018-09-04T19:47:39.799Z,101290.60
2018-09-04T19:50:10.678Z,101292.17
2018-09-04T19:52:40.023Z,101298.16
2018-09-04T19:55:10.635Z,101291.48
2018-09-04T19:57:39.586Z,101293.77
2018-09-04T20:00:09.993Z,101292.16
2018-09-04T20:02:39.784Z,101290.34
2018-09-04T20:05:10.751Z,101294.87
2018-09-04T20:07:39.793Z,101296.56
2018-09-04T20:10:09.141Z,101300.77
2018-09-04T20:12:39.023Z,101296.63
2018-09-04T20:15:09.150Z,101305.78
2018-09-04T20:17:38.917Z,101308.77
2018-09-04T20:20:09.625Z,101308.16
2018-09-04T20:22:39.300Z,101304.02
2018-09-04T20:25:08.389Z,101312.53
2018-09-04T20:27:37.454Z,101308.63
2018-09-04T20:30:07.663Z,101314.06
2018-09-04T20:32:36.669Z,101311.23
2018-09-04T20:35:06.775Z,101313.66
2018-09-04T20:37:36.446Z,101314.91
2018-09-04T20:40:05.593Z,101321.10
2018-09-04T20:42:35.351Z,101327.12
2018-09-04T20:45:05.005Z,101324.58
2018-09-04T20:47:34.948Z,101324.01
2018-09-04T20:50:04.376Z,101334.80
2018-09-04T20:52:34.199Z,101330.66
2018-09-04T20:55:04.319Z,101333.56
2018-09-04T20:57:33.172Z,101337.34
2018-09-04T21:00:14.714Z,101329.38
2018-09-04T21:02:55.336Z,101335.56
2018-09-04T21:05:35.909Z,101334.66
2018-09-04T21:08:18.826Z,101333.50
2018-09-04T21:10:49.082Z,101335.91
2018-09-04T21:13:19.026Z,101338.02
2018-09-04T21:15:48.787Z,101343.68
2018-09-04T21:18:19.125Z,101338.36
2018-09-04T21:20:49.197Z,101342.09
2018-09-04T21:23:18.416Z,101342.81
2018-09-04T21:25:48.173Z,101338.97
2018-09-04T21:28:17.692Z,101342.73
2018-09-04T21:30:47.068Z,101338.40
2018-09-04T21:33:16.236Z,101338.09
2018-09-04T21:35:53.622Z,101333.13
2018-09-04T21:38:28.431Z,101345.33
2018-09-04T21:40:58.049Z,101343.07
2018-09-04T21:43:29.957Z,101348.45
2018-09-04T21:46:03.924Z,101352.98
2018-09-04T21:48:36.906Z,101349.31
2018-09-04T21:51:12.354Z,101356.02
2018-09-04T21:53:42.529Z,101358.98
2018-09-04T21:56:13.227Z,101351.90
2018-09-04T21:58:47.288Z,101349.77
2018-09-04T22:01:18.020Z,101346.17
2018-09-04T22:03:47.917Z,101350.24
2018-09-04T22:06:18.022Z,101348.98
2018-09-04T22:08:57.206Z,101345.29
2018-09-04T22:11:35.579Z,101339.86
2018-09-04T22:14:09.367Z,101342.75
2018-09-04T22:16:42.050Z,101344.28
2018-09-04T22:19:12.070Z,101344.28
2018-09-04T22:21:46.818Z,101352.42
2018-09-04T22:24:16.826Z,101348.58
2018-09-04T22:26:45.523Z,101346.92
2018-09-04T22:29:16.170Z,101350.91
2018-09-04T22:31:46.353Z,101343.47
2018-09-04T22:34:20.865Z,101344.22
2018-09-04T22:36:58.713Z,101353.19
2018-09-04T22:39:27.828Z,101349.64
2018-09-04T22:41:57.340Z,101344.39
2018-09-04T22:44:35.240Z,101344.84
2018-09-04T22:47:06.643Z,101347.47
2018-09-04T22:49:37.475Z,101347.94
2018-09-04T22:52:08.244Z,101350.34
2018-09-04T22:54:36.981Z,101349.44
2018-09-04T22:57:07.565Z,101344.49
2018-09-04T22:59:37.159Z,101342.19
2018-09-04T23:02:07.199Z,101350.02
2018-09-04T23:04:36.089Z,101339.17
2018-09-04T23:07:09.500Z,101350.48
2018-09-04T23:09:39.082Z,101348.22
2018-09-04T23:12:08.347Z,101347.56
2018-09-04T23:14:38.691Z,101348.08
2018-09-04T23:17:09.463Z,101346.56
2018-09-04T23:19:40.538Z,101347.34
2018-09-04T23:22:11.674Z,101348.08
2018-09-04T23:24:41.711Z,101342.05
2018-09-04T23:27:17.660Z,101343.66
2018-09-04T23:29:47.121Z,101342.44
2018-09-04T23:32:16.292Z,101342.60
2018-09-04T23:34:45.208Z,101341.38
2018-09-04T23:37:14.635Z,101341.59
2018-09-04T23:39:43.918Z,101337.53
2018-09-04T23:42:13.381Z,101338.00
2018-09-04T23:44:43.176Z,101340.53
2018-09-04T23:47:12.269Z,101337.83
2018-09-04T23:49:42.231Z,101337.25
2018-09-04T23:52:11.560Z,101336.63
2018-09-04T23:54:40.659Z,101333.01
2018-09-04T23:57:10.535Z,101334.31
2018-09-04T23:59:39.778Z,101335.57
